Time;durP1;ratioP1;P1;durP2;ratioP2;P2;SDS_P1;SDS_P2;PMS_P1;PMS_P2;Temp;Humidity;BMP_temperature;BMP_pressure;BME280_temperature;BME280_humidity;BME280_pressure;Samples;Min_cycle;Max_cycle;Signal;HPM_P1;HPM_P2
2023/09/03 00:00:52;;;;;;;1.60;0.45;;;12.90;99.90;;;;;;5073754;28;20048;-70
2023/09/03 00:03:17;;;;;;;0.68;0.20;;;12.90;99.90;;;;;;5089680;28;20040;-70
2023/09/03 00:05:56;;;;;;;0.93;0.50;;;12.90;99.90;;;;;;5092759;28;20088;-70
2023/09/03 00:08:23;;;;;;;0.25;0.17;;;12.80;99.90;;;;;;5092485;28;20062;-70
2023/09/03 00:10:50;;;;;;;0.17;0.15;;;12.80;99.90;;;;;;5090793;28;20035;-70
2023/09/03 00:13:16;;;;;;;0.77;0.30;;;12.80;99.90;;;;;;5092083;28;20050;-70
2023/09/03 00:15:41;;;;;;;2.42;0.40;;;12.80;99.90;;;;;;5093902;28;20043;-68
2023/09/03 00:18:10;;;;;;;0.82;0.22;;;12.80;99.90;;;;;;5094287;28;20050;-69
2023/09/03 00:20:35;;;;;;;0.47;0.30;;;12.70;99.90;;;;;;5089377;28;20076;-68
2023/09/03 00:23:01;;;;;;;0.55;0.30;;;12.70;99.90;;;;;;5110109;28;20079;-67
2023/09/03 00:25:27;;;;;;;0.30;0.20;;;12.70;99.90;;;;;;5090324;28;20501;-67
2023/09/03 00:27:52;;;;;;;0.63;0.43;;;12.60;99.90;;;;;;5089166;28;20051;-68
2023/09/03 00:30:18;;;;;;;0.32;0.15;;;12.60;99.90;;;;;;5092286;28;20053;-68
2023/09/03 00:32:44;;;;;;;0.43;0.20;;;12.60;99.90;;;;;;5090314;28;20106;-68
2023/09/03 00:35:10;;;;;;;0.65;0.20;;;12.50;99.90;;;;;;5090859;28;20443;-68
2023/09/03 00:37:36;;;;;;;1.17;0.52;;;12.50;99.90;;;;;;5090177;28;20051;-68
2023/09/03 00:40:02;;;;;;;0.60;0.13;;;12.50;99.90;;;;;;5089102;28;20122;-68
2023/09/03 00:42:28;;;;;;;1.13;0.20;;;12.50;99.90;;;;;;5091060;28;20572;-68
2023/09/03 00:44:54;;;;;;;1.88;0.38;;;12.50;99.90;;;;;;5091887;28;20282;-68
2023/09/03 00:47:19;;;;;;;1.30;0.40;;;12.40;99.90;;;;;;5090873;28;20035;-68
2023/09/03 00:49:45;;;;;;;0.20;0.08;;;12.40;99.90;;;;;;5087838;28;20050;-68
2023/09/03 00:52:13;;;;;;;0.57;0.30;;;12.40;99.90;;;;;;5083320;28;20527;-68
2023/09/03 00:54:40;;;;;;;0.85;0.22;;;12.40;99.90;;;;;;5086354;28;20047;-68
2023/09/03 00:57:06;;;;;;;0.43;0.20;;;12.40;99.90;;;;;;5090667;28;20515;-68
2023/09/03 00:59:33;;;;;;;0.30;0.10;;;12.30;99.90;;;;;;5089358;28;20139;-68
2023/09/03 01:01:59;;;;;;;0.70;0.30;;;12.30;99.90;;;;;;5092123;28;20510;-69
2023/09/03 01:04:25;;;;;;;0.40;0.20;;;12.30;99.90;;;;;;5089553;28;20063;-68
2023/09/03 01:06:51;;;;;;;0.43;0.20;;;12.30;99.90;;;;;;5089241;28;20082;-69
2023/09/03 01:09:18;;;;;;;0.93;0.17;;;12.30;99.90;;;;;;5085737;28;20038;-69
2023/09/03 01:12:10;;;;;;;1.17;0.38;;;12.30;99.90;;;;;;5087667;28;20544;-69
2023/09/03 01:14:39;;;;;;;0.77;0.40;;;12.30;99.90;;;;;;5090133;28;20047;-69
2023/09/03 01:17:16;;;;;;;0.45;0.10;;;12.30;99.90;;;;;;5089844;28;20126;-70
2023/09/03 01:20:06;;;;;;;0.80;0.40;;;12.30;99.90;;;;;;5087622;28;20039;-69
2023/09/03 01:23:00;;;;;;;0.15;0.13;;;12.20;99.90;;;;;;5109586;28;20097;-70
2023/09/03 01:25:35;;;;;;;0.40;0.15;;;12.20;99.90;;;;;;5069018;28;20143;-69
2023/09/03 01:28:26;;;;;;;1.63;0.20;;;12.20;99.90;;;;;;5108677;28;20044;-69
2023/09/03 01:31:00;;;;;;;0.75;0.40;;;12.20;99.90;;;;;;5091365;28;20040;-70
2023/09/03 01:33:27;;;;;;;0.90;0.20;;;12.20;99.90;;;;;;5080839;28;20190;-70
2023/09/03 01:35:55;;;;;;;0.43;0.20;;;12.10;99.90;;;;;;5068699;28;20039;-70
2023/09/03 01:38:21;;;;;;;0.88;0.17;;;12.10;99.90;;;;;;5068735;28;20046;-69
2023/09/03 01:40:51;;;;;;;4.80;0.32;;;12.10;99.90;;;;;;5084045;28;20488;-70
2023/09/03 01:43:16;;;;;;;0.30;0.20;;;12.10;99.90;;;;;;5070861;28;20389;-70
2023/09/03 01:46:00;;;;;;;0.73;0.30;;;12.10;99.90;;;;;;5071655;28;20035;-69
2023/09/03 01:49:07;;;;;;;0.35;0.20;;;12.10;99.90;;;;;;5068900;28;20787;-69
2023/09/03 01:52:06;;;;;;;1.02;0.40;;;12.10;99.90;;;;;;5041800;28;20086;-69
2023/09/03 01:54:45;;;;;;;1.48;0.55;;;12.00;99.90;;;;;;5066800;28;20040;-70
2023/09/03 01:57:22;;;;;;;0.77;0.40;;;12.10;99.90;;;;;;5086535;28;20164;-70
2023/09/03 02:00:00;;;;;;;1.45;0.40;;;12.00;99.90;;;;;;5089163;28;20028;-70
2023/09/03 02:02:28;;;;;;;1.42;0.60;;;12.00;99.90;;;;;;5069377;28;20050;-70
2023/09/03 02:04:54;;;;;;;0.35;0.13;;;12.10;99.90;;;;;;5071148;28;20028;-69
2023/09/03 02:07:20;;;;;;;0.57;0.30;;;12.00;99.90;;;;;;5088528;28;20044;-69
2023/09/03 02:09:46;;;;;;;0.57;0.25;;;12.10;99.90;;;;;;5070669;28;20621;-70
2023/09/03 02:12:12;;;;;;;0.52;0.17;;;12.10;99.90;;;;;;5071280;28;20044;-69
2023/09/03 02:14:38;;;;;;;0.47;0.35;;;12.00;99.90;;;;;;5071090;28;20075;-69
2023/09/03 02:17:04;;;;;;;0.22;0.20;;;12.00;99.90;;;;;;5070384;28;20036;-70
2023/09/03 02:19:29;;;;;;;0.38;0.15;;;12.00;99.90;;;;;;5087028;28;20040;-69
2023/09/03 02:21:55;;;;;;;0.85;0.28;;;12.00;99.90;;;;;;5070167;28;20423;-70
2023/09/03 02:24:21;;;;;;;0.35;0.10;;;12.00;99.90;;;;;;5067920;28;20075;-69
2023/09/03 02:26:47;;;;;;;0.30;0.20;;;12.00;99.90;;;;;;5070750;28;20082;-69
2023/09/03 02:29:13;;;;;;;0.30;0.20;;;11.90;99.90;;;;;;5068412;28;20040;-69
2023/09/03 02:31:39;;;;;;;0.40;0.25;;;11.90;99.90;;;;;;5069808;28;20040;-69
2023/09/03 02:34:06;;;;;;;1.23;0.30;;;11.90;99.90;;;;;;5083738;28;20138;-70
2023/09/03 02:36:34;;;;;;;0.10;0.10;;;11.90;99.90;;;;;;5113396;27;20065;-69
2023/09/03 02:39:07;;;;;;;0.77;0.22;;;11.90;99.90;;;;;;5108238;28;20579;-69
2023/09/03 02:41:33;;;;;;;0.40;0.25;;;11.90;99.90;;;;;;5107600;28;20122;-69
2023/09/03 02:44:00;;;;;;;1.10;0.30;;;11.90;99.90;;;;;;5088789;28;20058;-68
2023/09/03 02:46:27;;;;;;;0.13;0.10;;;11.90;99.90;;;;;;5089179;28;20510;-69
2023/09/03 02:48:53;;;;;;;0.85;0.10;;;11.90;99.90;;;;;;5089718;28;20040;-69
2023/09/03 02:51:19;;;;;;;0.32;0.10;;;11.90;99.90;;;;;;5087799;28;20419;-69
2023/09/03 02:53:47;;;;;;;0.40;0.20;;;11.90;99.90;;;;;;5108463;28;20043;-69
2023/09/03 02:56:13;;;;;;;0.20;0.20;;;11.90;99.90;;;;;;5088822;28;20491;-69
2023/09/03 02:58:40;;;;;;;0.52;0.20;;;11.80;99.90;;;;;;5089949;28;20039;-69
2023/09/03 03:01:11;;;;;;;0.63;0.20;;;11.80;99.90;;;;;;5089898;28;20077;-69
2023/09/03 03:03:36;;;;;;;0.10;0.10;;;11.80;99.90;;;;;;5087647;28;20106;-69
2023/09/03 03:06:02;;;;;;;0.68;0.30;;;11.80;99.90;;;;;;5109728;28;20101;-69
2023/09/03 03:08:28;;;;;;;0.63;0.30;;;11.80;99.90;;;;;;5088519;28;20066;-69
2023/09/03 03:11:05;;;;;;;0.77;0.32;;;11.70;99.90;;;;;;5072837;28;20036;-69
2023/09/03 03:13:31;;;;;;;0.65;0.25;;;11.80;99.90;;;;;;5092000;28;20051;-70
2023/09/03 03:15:56;;;;;;;0.20;0.17;;;11.70;99.90;;;;;;5094192;28;20542;-69
2023/09/03 03:18:22;;;;;;;0.35;0.17;;;11.70;99.90;;;;;;5094294;28;20479;-69
2023/09/03 03:20:48;;;;;;;0.52;0.20;;;11.70;99.90;;;;;;5072471;28;20035;-69
2023/09/03 03:23:13;;;;;;;0.38;0.20;;;11.70;99.90;;;;;;5093722;28;20122;-69
2023/09/03 03:25:39;;;;;;;0.77;0.50;;;11.70;99.90;;;;;;5093547;28;20097;-69
2023/09/03 03:28:05;;;;;;;1.25;0.40;;;11.70;99.90;;;;;;5110745;28;20054;-69
2023/09/03 03:30:31;;;;;;;0.75;0.43;;;11.70;99.90;;;;;;5092913;28;20039;-68
2023/09/03 03:32:56;;;;;;;0.30;0.10;;;11.70;99.90;;;;;;5086351;28;20047;-69
2023/09/03 03:35:22;;;;;;;0.25;0.17;;;11.60;99.90;;;;;;5068785;28;20411;-69
2023/09/03 03:37:48;;;;;;;1.33;0.80;;;11.60;99.90;;;;;;5070467;28;20043;-69
2023/09/03 03:40:13;;;;;;;0.77;0.20;;;11.60;99.90;;;;;;5074234;28;20071;-69
2023/09/03 03:42:39;;;;;;;0.82;0.30;;;11.60;99.90;;;;;;5071084;28;20044;-69
2023/09/03 03:45:05;;;;;;;0.30;0.20;;;11.60;99.90;;;;;;5070810;28;20040;-69
2023/09/03 03:47:31;;;;;;;1.05;0.17;;;11.60;99.90;;;;;;5092054;28;20093;-69
2023/09/03 03:49:57;;;;;;;0.98;0.30;;;11.60;99.90;;;;;;5072941;28;20043;-69
2023/09/03 03:52:22;;;;;;;0.45;0.30;;;11.60;99.90;;;;;;5072459;28;20032;-69
2023/09/03 03:54:50;;;;;;;1.65;0.52;;;11.60;99.90;;;;;;5072162;28;20436;-69
2023/09/03 03:57:15;;;;;;;0.65;0.30;;;11.60;99.90;;;;;;5072395;28;20091;-69
2023/09/03 03:59:41;;;;;;;1.08;0.47;;;11.60;99.90;;;;;;5091248;28;20208;-69
2023/09/03 04:02:07;;;;;;;1.38;0.43;;;11.60;99.90;;;;;;5072596;28;20044;-69
2023/09/03 04:04:32;;;;;;;0.22;0.22;;;11.60;99.90;;;;;;5073861;28;20391;-69
2023/09/03 04:06:58;;;;;;;0.70;0.30;;;11.50;99.90;;;;;;5073405;28;20122;-69
2023/09/03 04:09:24;;;;;;;0.20;0.10;;;11.40;99.90;;;;;;5055680;28;20032;-69
2023/09/03 04:11:49;;;;;;;0.68;0.13;;;11.40;99.90;;;;;;5074064;28;20517;-69
2023/09/03 04:14:15;;;;;;;1.02;0.20;;;11.40;99.90;;;;;;5090398;28;20043;-68
2023/09/03 04:16:41;;;;;;;0.50;0.20;;;11.40;99.90;;;;;;5073949;28;20133;-68
2023/09/03 04:19:06;;;;;;;0.50;0.30;;;11.40;99.90;;;;;;5072320;28;20043;-69
2023/09/03 04:21:32;;;;;;;0.50;0.30;;;11.40;99.90;;;;;;5089121;28;20051;-68
2023/09/03 04:23:58;;;;;;;0.05;0.05;;;11.40;99.90;;;;;;5093876;28;20189;-68
2023/09/03 04:26:23;;;;;;;0.30;0.22;;;11.30;99.90;;;;;;5073046;28;20032;-69
2023/09/03 04:28:49;;;;;;;0.40;0.22;;;11.30;99.90;;;;;;5070953;28;20032;-69
2023/09/03 04:31:15;;;;;;;0.52;0.25;;;11.40;99.90;;;;;;5091345;28;20079;-69
2023/09/03 04:33:40;;;;;;;0.50;0.30;;;11.30;99.90;;;;;;5082274;28;20091;-68
2023/09/03 04:36:06;;;;;;;0.30;0.13;;;11.30;99.90;;;;;;5093004;28;20134;-69
2023/09/03 04:38:33;;;;;;;0.47;0.20;;;11.30;99.90;;;;;;5090029;28;20394;-69
2023/09/03 04:41:04;;;;;;;0.20;0.10;;;11.30;99.90;;;;;;5093135;28;20120;-68
2023/09/03 04:43:30;;;;;;;0.75;0.35;;;11.30;99.90;;;;;;5089681;28;20383;-69
2023/09/03 04:45:55;;;;;;;0.77;0.28;;;11.30;99.90;;;;;;5092103;28;20032;-68
2023/09/03 04:48:21;;;;;;;0.20;0.15;;;11.30;99.90;;;;;;5089857;28;20119;-68
2023/09/03 04:50:48;;;;;;;0.60;0.20;;;11.30;99.90;;;;;;5090468;28;20067;-69
2023/09/03 04:53:13;;;;;;;0.43;0.20;;;11.30;99.90;;;;;;5092130;28;20032;-69
2023/09/03 04:55:41;;;;;;;0.20;0.10;;;11.30;99.90;;;;;;5092195;28;20141;-69
2023/09/03 04:58:07;;;;;;;0.43;0.13;;;11.30;99.90;;;;;;5089672;28;20040;-69
2023/09/03 05:00:33;;;;;;;0.15;0.10;;;11.30;99.90;;;;;;5091826;28;20105;-68
2023/09/03 05:03:01;;;;;;;0.32;0.30;;;11.40;99.90;;;;;;5090641;28;20039;-68
2023/09/03 05:05:26;;;;;;;0.47;0.13;;;11.30;99.90;;;;;;5091047;28;20051;-69
2023/09/03 05:07:52;;;;;;;0.10;0.08;;;11.30;99.90;;;;;;5087608;28;20036;-69
2023/09/03 05:10:18;;;;;;;0.40;0.28;;;11.30;99.90;;;;;;5088999;28;20043;-69
2023/09/03 05:12:44;;;;;;;0.82;0.38;;;11.30;99.90;;;;;;5087206;28;20043;-69
2023/09/03 05:15:13;;;;;;;0.00;0.00;;;11.30;99.90;;;;;;5091720;28;20126;-69
2023/09/03 05:17:40;;;;;;;0.38;0.20;;;11.40;99.90;;;;;;5117267;27;20107;-69
2023/09/03 05:20:08;;;;;;;0.20;0.05;;;11.40;99.90;;;;;;5086510;28;20067;-69
2023/09/03 05:22:34;;;;;;;0.17;0.08;;;11.40;99.90;;;;;;5089082;28;20407;-69
2023/09/03 05:25:00;;;;;;;0.10;0.10;;;11.50;99.90;;;;;;5111198;28;20035;-69
2023/09/03 05:27:29;;;;;;;0.65;0.25;;;11.50;99.90;;;;;;5092720;28;20066;-69
2023/09/03 05:29:54;;;;;;;0.52;0.20;;;11.50;99.90;;;;;;5088536;28;20036;-69
2023/09/03 05:32:20;;;;;;;0.50;0.20;;;11.50;99.90;;;;;;5069140;28;20097;-69
2023/09/03 05:34:46;;;;;;;0.65;0.30;;;11.60;99.90;;;;;;5069760;28;20142;-68
2023/09/03 05:37:13;;;;;;;1.95;0.20;;;11.60;99.90;;;;;;5071932;28;20044;-69
2023/09/03 05:39:39;;;;;;;0.35;0.20;;;11.60;99.90;;;;;;5067475;28;20105;-69
2023/09/03 05:42:05;;;;;;;0.43;0.30;;;11.60;99.90;;;;;;5071450;28;20040;-68
2023/09/03 05:44:30;;;;;;;0.28;0.15;;;11.70;99.90;;;;;;5067429;28;20040;-69
2023/09/03 05:46:56;;;;;;;0.20;0.10;;;11.70;99.90;;;;;;5070103;28;20043;-69
2023/09/03 05:49:22;;;;;;;0.28;0.13;;;11.70;99.90;;;;;;5068123;28;20416;-69
2023/09/03 05:51:47;;;;;;;0.60;0.30;;;11.80;99.90;;;;;;5071385;28;20533;-69
2023/09/03 05:54:13;;;;;;;0.38;0.13;;;11.90;99.90;;;;;;5088032;28;20039;-69
2023/09/03 05:56:39;;;;;;;0.25;0.10;;;12.00;99.90;;;;;;5068625;28;20040;-69
2023/09/03 05:59:10;;;;;;;0.10;0.10;;;12.00;99.90;;;;;;5086603;28;20487;-68
2023/09/03 06:01:36;;;;;;;0.70;0.15;;;12.10;99.90;;;;;;5067655;28;20048;-68
2023/09/03 06:04:04;;;;;;;0.38;0.15;;;12.20;99.90;;;;;;5067211;28;20090;-68
2023/09/03 06:06:38;;;;;;;0.38;0.10;;;12.20;99.90;;;;;;5066902;28;20141;-69
2023/09/03 06:09:05;;;;;;;0.32;0.20;;;12.40;99.90;;;;;;5065555;28;20069;-69
2023/09/03 06:11:35;;;;;;;0.52;0.20;;;12.40;99.90;;;;;;5064468;28;20094;-69
2023/09/03 06:14:01;;;;;;;0.43;0.20;;;12.50;99.90;;;;;;5069947;28;20411;-69
2023/09/03 06:16:27;;;;;;;0.90;0.30;;;12.60;99.90;;;;;;5068709;28;20036;-69
2023/09/03 06:18:53;;;;;;;0.20;0.17;;;12.70;99.90;;;;;;5048098;28;20036;-69
2023/09/03 06:21:19;;;;;;;0.32;0.03;;;12.80;99.90;;;;;;5066736;28;20474;-69
2023/09/03 06:23:45;;;;;;;0.45;0.17;;;12.90;99.90;;;;;;5066155;28;20055;-69
2023/09/03 06:26:11;;;;;;;0.52;0.20;;;13.00;99.90;;;;;;5066126;28;20756;-69
2023/09/03 06:28:36;;;;;;;0.10;0.10;;;13.10;99.90;;;;;;5066638;28;20036;-69
2023/09/03 06:31:03;;;;;;;0.20;0.10;;;13.10;99.90;;;;;;5066948;28;20047;-69
2023/09/03 06:33:28;;;;;;;0.22;0.10;;;13.20;99.90;;;;;;5067516;28;20504;-69
2023/09/03 06:35:56;;;;;;;1.20;0.32;;;13.20;99.90;;;;;;5050906;28;20101;-69
2023/09/03 06:38:22;;;;;;;0.30;0.20;;;13.30;99.90;;;;;;5052139;28;20036;-69
2023/09/03 06:40:48;;;;;;;0.20;0.10;;;13.30;99.90;;;;;;5067009;28;20051;-69
2023/09/03 06:43:14;;;;;;;0.10;0.10;;;13.50;99.90;;;;;;5069718;28;20042;-69
2023/09/03 06:45:40;;;;;;;0.22;0.10;;;13.50;99.90;;;;;;5070291;28;20039;-69
2023/09/03 06:48:06;;;;;;;0.38;0.30;;;13.50;99.90;;;;;;5070813;28;20408;-69
2023/09/03 06:50:31;;;;;;;0.55;0.25;;;13.70;99.90;;;;;;5072736;28;20393;-69
2023/09/03 06:52:57;;;;;;;0.52;0.30;;;13.70;99.90;;;;;;5073316;28;20816;-69
2023/09/03 06:55:23;;;;;;;0.50;0.38;;;13.80;99.90;;;;;;5073888;28;20083;-69
2023/09/03 06:57:49;;;;;;;1.85;0.20;;;13.90;99.90;;;;;;5073408;28;20042;-70
2023/09/03 07:00:15;;;;;;;1.30;0.25;;;14.00;99.90;;;;;;5073713;28;20043;-69
2023/09/03 07:02:41;;;;;;;0.85;0.40;;;14.10;99.90;;;;;;5073015;28;20045;-70
2023/09/03 07:05:07;;;;;;;0.10;0.10;;;14.20;99.90;;;;;;5068018;28;20036;-69
2023/09/03 07:07:35;;;;;;;0.17;0.10;;;14.20;99.90;;;;;;5072314;28;20503;-69
2023/09/03 07:10:01;;;;;;;0.30;0.20;;;14.40;99.90;;;;;;5070546;28;20070;-70
2023/09/03 07:12:26;;;;;;;0.82;0.00;;;14.50;99.90;;;;;;5072542;28;20040;-69
2023/09/03 07:14:52;;;;;;;0.40;0.30;;;14.60;99.90;;;;;;5072045;28;20463;-70
2023/09/03 07:17:18;;;;;;;0.75;0.28;;;14.80;99.90;;;;;;5071763;28;20070;-69
2023/09/03 07:19:44;;;;;;;0.40;0.30;;;15.00;99.90;;;;;;5070719;28;20079;-69
2023/09/03 07:22:09;;;;;;;0.20;0.10;;;15.10;99.90;;;;;;5071060;28;20510;-70
2023/09/03 07:24:35;;;;;;;0.35;0.20;;;15.20;99.90;;;;;;5087039;28;20046;-70
2023/09/03 07:27:01;;;;;;;0.65;0.20;;;15.40;99.90;;;;;;5070988;28;20075;-69
2023/09/03 07:29:27;;;;;;;0.20;0.10;;;15.50;99.90;;;;;;5087295;28;20533;-70
2023/09/03 07:31:52;;;;;;;0.50;0.20;;;15.70;99.90;;;;;;5063086;28;20032;-69
2023/09/03 07:34:18;;;;;;;0.43;0.20;;;15.80;99.90;;;;;;5086707;28;20638;-70
2023/09/03 07:36:44;;;;;;;0.63;0.20;;;16.00;99.90;;;;;;5089692;28;20420;-70
2023/09/03 07:39:10;;;;;;;0.10;0.10;;;16.20;99.90;;;;;;5090076;28;20081;-70
2023/09/03 07:41:39;;;;;;;1.05;0.20;;;16.30;99.90;;;;;;5090448;28;20047;-70
2023/09/03 07:44:05;;;;;;;0.47;0.30;;;16.50;99.90;;;;;;5089480;28;20028;-70
2023/09/03 07:46:31;;;;;;;0.57;0.20;;;16.60;99.90;;;;;;5086327;28;20122;-70
2023/09/03 07:48:57;;;;;;;0.50;0.10;;;16.80;99.90;;;;;;5073034;28;20042;-70
2023/09/03 07:51:23;;;;;;;0.30;0.17;;;16.90;99.90;;;;;;5092428;28;20043;-70
2023/09/03 07:53:49;;;;;;;0.82;0.20;;;17.10;99.90;;;;;;5093209;28;20129;-70
2023/09/03 07:56:15;;;;;;;0.47;0.20;;;17.20;99.90;;;;;;5090616;28;20107;-70
2023/09/03 07:58:44;;;;;;;0.15;0.10;;;17.40;99.90;;;;;;5088671;28;20040;-71
2023/09/03 08:01:12;;;;;;;0.35;0.20;;;17.60;99.90;;;;;;5092820;28;20043;-71
2023/09/03 08:03:41;;;;;;;0.40;0.15;;;17.80;99.90;;;;;;5091117;28;20071;-71
2023/09/03 08:06:08;;;;;;;2.67;0.10;;;18.00;99.90;;;;;;5089536;28;20032;-71
2023/09/03 08:08:34;;;;;;;0.52;0.20;;;18.20;99.90;;;;;;5088046;28;20043;-71
2023/09/03 08:11:00;;;;;;;0.40;0.10;;;18.40;99.90;;;;;;5093677;28;20143;-70
2023/09/03 08:13:27;;;;;;;0.20;0.17;;;18.60;99.90;;;;;;5108219;28;20050;-71
2023/09/03 08:15:52;;;;;;;0.10;0.10;;;18.80;99.90;;;;;;5093935;28;20036;-71
2023/09/03 08:18:19;;;;;;;0.20;0.10;;;18.80;99.90;;;;;;5088770;28;20075;-71
2023/09/03 08:20:45;;;;;;;0.25;0.10;;;19.00;99.90;;;;;;5092768;28;20146;-71
2023/09/03 08:23:12;;;;;;;0.13;0.10;;;19.10;99.90;;;;;;5090943;28;20371;-71
2023/09/03 08:25:38;;;;;;;0.63;0.10;;;19.20;99.90;;;;;;5093729;28;20039;-71
2023/09/03 08:28:05;;;;;;;0.45;0.20;;;19.30;99.90;;;;;;5091249;28;20040;-71
2023/09/03 08:30:31;;;;;;;10.75;4.88;;;19.40;99.90;;;;;;5094006;28;20126;-70
2023/09/03 08:32:57;;;;;;;0.30;0.22;;;19.50;99.90;;;;;;5091748;28;20035;-71
2023/09/03 08:35:23;;;;;;;0.50;0.10;;;19.60;99.90;;;;;;5089454;28;20156;-71
2023/09/03 08:37:49;;;;;;;0.60;0.17;;;19.70;99.90;;;;;;5091500;28;20071;-71
2023/09/03 08:40:17;;;;;;;0.35;0.15;;;19.80;99.90;;;;;;5092965;28;20038;-71
2023/09/03 08:42:49;;;;;;;0.40;0.00;;;19.80;99.90;;;;;;5091376;28;20416;-69
2023/09/03 08:45:18;;;;;;;0.20;0.10;;;19.90;99.90;;;;;;5083126;28;20040;-68
2023/09/03 08:47:44;;;;;;;0.10;0.10;;;19.90;99.90;;;;;;5108138;28;20043;-72
2023/09/03 08:50:12;;;;;;;0.25;0.03;;;20.00;99.90;;;;;;5073561;28;20043;-71
2023/09/03 08:52:39;;;;;;;0.63;0.10;;;20.10;99.90;;;;;;5091193;28;20058;-71
2023/09/03 08:55:05;;;;;;;0.85;0.20;;;20.20;99.90;;;;;;5090404;28;20046;-71
2023/09/03 08:57:34;;;;;;;0.20;0.17;;;20.30;99.90;;;;;;5070978;28;20050;-71
2023/09/03 09:00:12;;;;;;;0.60;0.20;;;20.40;99.90;;;;;;5091855;28;20097;-71
2023/09/03 09:02:39;;;;;;;0.15;0.10;;;20.50;99.90;;;;;;5084933;28;20039;-78
2023/09/03 09:05:07;;;;;;;0.35;0.10;;;20.70;99.90;;;;;;5090074;28;20040;-74
2023/09/03 09:07:33;;;;;;;0.20;0.10;;;20.90;99.90;;;;;;5092006;28;20063;-72
2023/09/03 09:10:05;;;;;;;0.52;0.00;;;21.20;99.90;;;;;;5089944;28;20196;-71
2023/09/03 09:12:36;;;;;;;0.00;0.00;;;21.40;99.90;;;;;;5088916;28;20058;-70
2023/09/03 09:15:05;;;;;;;0.68;0.10;;;21.70;99.90;;;;;;5087255;28;20051;-73
2023/09/03 09:17:42;;;;;;;0.10;0.00;;;22.00;99.90;;;;;;5090365;28;20040;-72
2023/09/03 09:20:12;;;;;;;0.40;0.00;;;22.30;99.90;;;;;;5085388;28;20132;-73
2023/09/03 09:22:46;;;;;;;0.10;0.00;;;22.50;99.90;;;;;;5090596;28;20048;-74
2023/09/03 09:25:25;;;;;;;0.00;0.00;;;22.80;99.90;;;;;;5089692;28;20146;-73
2023/09/03 09:27:57;;;;;;;0.10;0.10;;;23.00;99.90;;;;;;5085826;28;20054;-73
2023/09/03 09:30:26;;;;;;;0.57;0.32;;;23.20;99.90;;;;;;5089794;28;20106;-74
2023/09/03 09:33:19;;;;;;;0.28;0.10;;;23.30;99.90;;;;;;5083339;28;20039;-73
2023/09/03 09:35:46;;;;;;;0.00;0.00;;;23.30;99.90;;;;;;5083476;28;20442;-74
2023/09/03 09:38:11;;;;;;;0.05;0.00;;;23.30;99.90;;;;;;5089722;28;20039;-75
2023/09/03 09:40:37;;;;;;;0.90;0.20;;;23.40;99.90;;;;;;5090857;28;20035;-74
2023/09/03 09:43:06;;;;;;;0.00;0.00;;;23.30;99.90;;;;;;5090114;28;20031;-74
2023/09/03 09:45:33;;;;;;;0.10;0.05;;;23.20;99.90;;;;;;5089270;28;20546;-74
2023/09/03 09:48:08;;;;;;;0.05;0.00;;;23.30;99.90;;;;;;5087680;28;20039;-75
2023/09/03 09:50:35;;;;;;;0.00;0.00;;;23.50;99.90;;;;;;5088617;28;20039;-67
2023/09/03 09:53:02;;;;;;;0.00;0.00;;;23.70;99.90;;;;;;5090071;28;20083;-68
2023/09/03 09:55:31;;;;;;;0.00;0.00;;;24.00;99.90;;;;;;5090942;28;20044;-69
2023/09/03 09:57:57;;;;;;;0.00;0.00;;;24.20;99.90;;;;;;5107491;28;20032;-68
2023/09/03 10:00:37;;;;;;;1.10;0.10;;;24.20;99.90;;;;;;5105888;28;20365;-67
2023/09/03 10:03:07;;;;;;;1.13;0.30;;;24.30;99.90;;;;;;5088830;28;20088;-73
2023/09/03 10:05:34;;;;;;;0.20;0.05;;;24.40;99.90;;;;;;5090105;28;20055;-74
2023/09/03 10:08:02;;;;;;;0.00;0.00;;;24.40;99.90;;;;;;5089270;28;20045;-76
2023/09/03 10:10:28;;;;;;;0.10;0.10;;;24.40;99.90;;;;;;5087819;28;20035;-80
2023/09/03 10:12:54;;;;;;;0.13;0.00;;;24.50;99.90;;;;;;5087522;28;20063;-75
2023/09/03 10:15:21;;;;;;;0.10;0.10;;;24.40;99.90;;;;;;5090525;28;20035;-77
2023/09/03 10:17:51;;;;;;;0.10;0.00;;;24.00;99.90;;;;;;5089844;28;20106;-80
2023/09/03 10:20:19;;;;;;;0.20;0.10;;;23.90;99.90;;;;;;5084933;28;20718;-79
2023/09/03 10:22:48;;;;;;;0.25;0.10;;;24.20;99.90;;;;;;5107695;28;20039;-79
2023/09/03 10:25:18;;;;;;;0.10;0.00;;;24.20;99.90;;;;;;5088400;28;20031;-83
2023/09/03 10:27:51;;;;;;;0.15;0.03;;;24.20;99.90;;;;;;5086265;28;20318;-76
2023/09/03 10:30:26;;;;;;;0.30;0.00;;;24.20;99.90;;;;;;5088900;28;20127;-78
2023/09/03 10:32:53;;;;;;;0.15;0.08;;;24.30;99.90;;;;;;5061124;28;20108;-75
2023/09/03 10:35:19;;;;;;;0.05;0.00;;;24.20;99.90;;;;;;5089225;28;20083;-80
2023/09/03 10:37:45;;;;;;;0.35;0.10;;;24.10;99.90;;;;;;5068659;28;20063;-79
2023/09/03 10:40:21;;;;;;;0.00;0.00;;;24.10;99.90;;;;;;5090397;28;20218;-70
2023/09/03 10:42:54;;;;;;;0.00;0.00;;;24.20;99.90;;;;;;5089061;28;20449;-79
2023/09/03 10:45:20;;;;;;;0.00;0.00;;;24.20;99.90;;;;;;5086803;28;20043;-79
2023/09/03 10:48:03;;;;;;;0.00;0.00;;;24.30;99.90;;;;;;5085546;28;20062;-80
2023/09/03 10:50:45;;;;;;;0.13;0.10;;;24.50;99.90;;;;;;5089662;28;20138;-79
2023/09/03 10:53:40;;;;;;;0.00;0.00;;;24.70;99.90;;;;;;5085158;28;20058;-79
2023/09/03 10:56:06;;;;;;;0.30;0.00;;;24.90;99.60;;;;;;5086360;28;20458;-79
2023/09/03 10:58:31;;;;;;;0.00;0.00;;;25.10;99.90;;;;;;5073005;28;20039;-79
2023/09/03 11:01:16;;;;;;;0.00;0.00;;;25.10;99.90;;;;;;5090035;28;20162;-80
2023/09/03 11:03:46;;;;;;;0.00;0.00;;;25.20;96.10;;;;;;5084685;28;20047;-80
2023/09/03 11:06:32;;;;;;;3.60;1.77;;;25.20;95.60;;;;;;5090842;28;20097;-79
2023/09/03 11:09:05;;;;;;;0.68;0.35;;;25.30;93.40;;;;;;5090393;28;20035;-80
2023/09/03 11:11:35;;;;;;;0.77;0.20;;;25.50;91.20;;;;;;5088972;28;20070;-80
2023/09/03 11:14:02;;;;;;;0.13;0.10;;;25.50;90.30;;;;;;5086287;28;20314;-79
2023/09/03 11:16:32;;;;;;;0.20;0.00;;;25.60;92.20;;;;;;5086531;28;20122;-79
2023/09/03 11:18:58;;;;;;;0.00;0.00;;;26.00;99.90;;;;;;5085849;28;20036;-79
2023/09/03 11:21:27;;;;;;;0.10;0.00;;;26.40;98.20;;;;;;5089763;28;20105;-79
2023/09/03 11:24:16;;;;;;;0.00;0.00;;;26.50;91.40;;;;;;5088021;28;20031;-79
2023/09/03 11:26:42;;;;;;;0.38;0.20;;;26.60;93.20;;;;;;5108815;28;20463;-77
2023/09/03 11:29:19;;;;;;;0.00;0.00;;;26.60;82.50;;;;;;5089273;28;20463;-79
2023/09/03 11:31:47;;;;;;;0.10;0.00;;;26.40;93.50;;;;;;5089072;28;20108;-76
2023/09/03 11:34:24;;;;;;;0.00;0.00;;;26.40;96.50;;;;;;5090515;28;20051;-77
2023/09/03 11:36:50;;;;;;;0.17;0.00;;;26.50;90.70;;;;;;5094013;28;20593;-80
2023/09/03 11:39:17;;;;;;;0.17;0.10;;;26.60;90.70;;;;;;5077684;28;20720;-80
2023/09/03 11:41:43;;;;;;;0.10;0.10;;;26.80;92.40;;;;;;5092385;28;20036;-79
2023/09/03 11:44:23;;;;;;;0.03;0.00;;;26.90;90.40;;;;;;5091886;28;20035;-80
2023/09/03 11:47:00;;;;;;;0.13;0.00;;;27.00;90.40;;;;;;5089657;28;20509;-79
2023/09/03 11:49:26;;;;;;;0.10;0.03;;;27.20;88.90;;;;;;5092303;28;20071;-78
2023/09/03 11:51:52;;;;;;;0.00;0.00;;;27.40;96.00;;;;;;5095939;28;20043;-79
2023/09/03 11:54:27;;;;;;;0.00;0.00;;;27.50;91.60;;;;;;5095764;28;20371;-78
2023/09/03 11:56:59;;;;;;;0.20;0.00;;;27.60;91.90;;;;;;5092593;28;20174;-78
2023/09/03 11:59:25;;;;;;;0.00;0.00;;;27.90;80.30;;;;;;5093155;28;20115;-78
2023/09/03 12:01:52;;;;;;;0.20;0.00;;;27.70;77.00;;;;;;5093850;28;20483;-76
2023/09/03 12:04:19;;;;;;;0.00;0.00;;;27.70;92.00;;;;;;5095706;28;20047;-76
2023/09/03 12:06:44;;;;;;;1.65;0.10;;;27.70;77.40;;;;;;5094484;28;20058;-75
2023/09/03 12:09:10;;;;;;;0.13;0.00;;;27.70;79.00;;;;;;5095576;28;20039;-75
2023/09/03 12:11:36;;;;;;;0.10;0.00;;;27.80;81.70;;;;;;5093676;28;20035;-77
2023/09/03 12:14:02;;;;;;;0.00;0.00;;;28.20;87.40;;;;;;5093070;28;20497;-75
2023/09/03 12:16:28;;;;;;;0.10;0.00;;;28.40;88.30;;;;;;5095183;28;20122;-76
2023/09/03 12:18:59;;;;;;;0.00;0.00;;;28.40;81.80;;;;;;5094387;28;20044;-74
2023/09/03 12:21:35;;;;;;;0.00;0.00;;;28.50;77.80;;;;;;5098410;28;20439;-75
2023/09/03 12:24:07;;;;;;;0.00;0.00;;;28.60;88.50;;;;;;5083617;28;20046;-76
2023/09/03 12:26:36;;;;;;;0.10;0.00;;;28.90;78.20;;;;;;5101780;28;20031;-78
2023/09/03 12:29:19;;;;;;;0.00;0.00;;;29.10;73.00;;;;;;5084279;28;20039;-75
2023/09/03 12:31:45;;;;;;;0.10;0.00;;;29.20;71.40;;;;;;5099695;28;20032;-76
2023/09/03 12:34:11;;;;;;;0.10;0.00;;;29.00;79.10;;;;;;5093806;28;20048;-75
2023/09/03 12:36:54;;;;;;;0.00;0.00;;;29.20;81.20;;;;;;5079838;28;20039;-78
2023/09/03 12:39:32;;;;;;;0.20;0.10;;;29.50;74.00;;;;;;5102023;28;20063;-76
2023/09/03 12:42:01;;;;;;;0.10;0.00;;;30.00;71.70;;;;;;5120435;27;20043;-74
2023/09/03 12:44:28;;;;;;;0.10;0.00;;;30.20;79.30;;;;;;5102605;27;20035;-75
2023/09/03 12:46:57;;;;;;;0.45;0.20;;;30.10;69.70;;;;;;5101835;28;20085;-74
2023/09/03 12:49:26;;;;;;;0.00;0.00;;;29.90;68.60;;;;;;5094939;28;20036;-75
2023/09/03 12:51:52;;;;;;;0.00;0.00;;;29.60;69.00;;;;;;5096698;28;20055;-75
2023/09/03 12:54:18;;;;;;;0.40;0.00;;;29.60;67.10;;;;;;5094554;28;20051;-75